Time;durP1;ratioP1;P1;durP2;ratioP2;P2;SDS_P1;SDS_P2;PMS_P1;PMS_P2;Temp;Humidity;BMP_temperature;BMP_pressure;BME280_temperature;BME280_humidity;BME280_pressure;Samples;Min_cycle;Max_cycle;Signal;HPM_P1;HPM_P2
2021/12/02 00:01:48;;;;;;;1.15;1.15;;;6.40;99.90;;;;;;6077989;23;20017;-83
2021/12/02 00:04:15;;;;;;;1.00;1.00;;;6.40;99.90;;;;;;6102467;23;20453;-83
2021/12/02 00:06:43;;;;;;;0.73;0.73;;;6.30;99.90;;;;;;6101283;23;20022;-83
2021/12/02 00:09:11;;;;;;;0.80;0.80;;;6.30;99.90;;;;;;6102310;23;20017;-82
2021/12/02 00:11:39;;;;;;;1.00;1.00;;;6.30;99.90;;;;;;6127117;23;20026;-84
2021/12/02 00:14:11;;;;;;;0.80;0.80;;;6.30;99.90;;;;;;6101726;23;20026;-84
2021/12/02 00:22:12;;;;;;;0.70;0.70;;;6.40;99.90;;;;;;6101553;23;20025;-83
2021/12/02 00:24:45;;;;;;;0.90;0.80;;;6.30;99.90;;;;;;6131863;23;20017;-83
2021/12/02 00:27:15;;;;;;;0.90;0.90;;;6.40;99.90;;;;;;6101457;23;20022;-83
2021/12/02 00:29:46;;;;;;;0.85;0.85;;;6.50;99.90;;;;;;6111581;23;20018;-83
2021/12/02 00:32:15;;;;;;;0.90;0.90;;;6.50;99.90;;;;;;6101839;23;20018;-83
2021/12/02 00:34:46;;;;;;;1.00;1.00;;;6.50;99.90;;;;;;6125394;23;20033;-83
2021/12/02 00:37:22;;;;;;;1.10;1.10;;;6.40;99.90;;;;;;6131110;23;20018;-84
2021/12/02 00:39:52;;;;;;;1.00;0.98;;;6.50;99.90;;;;;;6126285;23;20026;-83
2021/12/02 00:42:20;;;;;;;1.08;1.08;;;6.50;99.90;;;;;;6101211;23;20361;-84
2021/12/02 00:44:58;;;;;;;0.80;0.80;;;6.40;99.90;;;;;;6137527;23;20014;-84
2021/12/02 00:47:26;;;;;;;0.80;0.80;;;6.40;99.90;;;;;;6102702;23;20465;-85
2021/12/02 00:49:54;;;;;;;0.80;0.80;;;6.40;99.90;;;;;;6144643;23;20040;-83
2021/12/02 00:52:25;;;;;;;0.73;0.73;;;6.40;99.90;;;;;;6194113;23;20013;-86
2021/12/02 00:54:55;;;;;;;1.00;1.00;;;6.40;99.90;;;;;;6132095;23;20029;-83
2021/12/02 00:57:23;;;;;;;1.00;0.90;;;6.30;99.90;;;;;;6133577;23;20021;-85
2021/12/02 00:59:52;;;;;;;1.08;0.95;;;6.30;99.90;;;;;;6131956;23;20036;-82
2021/12/02 01:02:23;;;;;;;0.80;0.80;;;6.20;99.90;;;;;;6108628;23;20488;-87
2021/12/02 01:04:51;;;;;;;2.13;1.00;;;6.30;99.90;;;;;;6167553;23;20020;-87
2021/12/02 01:07:21;;;;;;;0.80;0.80;;;6.30;99.90;;;;;;6157394;23;20044;-86
2021/12/02 01:09:49;;;;;;;1.00;1.00;;;6.30;99.90;;;;;;6131953;23;20017;-86
2021/12/02 01:12:17;;;;;;;0.93;0.90;;;6.20;99.90;;;;;;6142984;23;20188;-83
2021/12/02 01:14:46;;;;;;;0.65;0.65;;;6.30;99.90;;;;;;6157307;23;20029;-84
2021/12/02 01:17:16;;;;;;;;;;;6.10;99.90;;;;;;6133386;23;20024;-85
2021/12/02 01:19:44;;;;;;;0.80;0.80;;;6.10;99.90;;;;;;6158707;23;19920;-83
2021/12/02 01:22:13;;;;;;;0.80;0.80;;;6.20;99.90;;;;;;6107933;23;20033;-82
2021/12/02 01:24:43;;;;;;;1.50;0.70;;;6.20;99.90;;;;;;6142126;23;20017;-84
2021/12/02 01:27:11;;;;;;;1.15;1.05;;;6.10;99.90;;;;;;6160818;23;20021;-83
2021/12/02 01:29:40;;;;;;;1.25;0.90;;;6.10;99.90;;;;;;6142991;23;20436;-85
2021/12/02 01:32:10;;;;;;;0.90;0.90;;;6.30;99.90;;;;;;6107875;23;20025;-85
2021/12/02 01:34:43;;;;;;;1.00;1.00;;;6.30;99.90;;;;;;6156288;23;20016;-85
2021/12/02 01:37:11;;;;;;;0.75;0.75;;;6.10;99.90;;;;;;6132591;23;20440;-84
2021/12/02 01:39:40;;;;;;;0.70;0.70;;;6.10;99.90;;;;;;6107403;23;20063;-85
2021/12/02 01:42:14;;;;;;;0.90;0.90;;;6.10;99.90;;;;;;6164986;23;20032;-83
2021/12/02 01:44:42;;;;;;;0.85;0.85;;;6.00;99.90;;;;;;6133599;23;20013;-83
2021/12/02 01:47:14;;;;;;;0.70;0.70;;;6.00;99.90;;;;;;6132682;23;20027;-83
2021/12/02 01:49:50;;;;;;;1.63;1.10;;;5.90;99.90;;;;;;6151880;23;20021;-87
2021/12/02 01:52:24;;;;;;;0.90;0.90;;;5.90;99.90;;;;;;6128416;23;20740;-85
2021/12/02 01:55:08;;;;;;;1.25;1.05;;;5.80;99.90;;;;;;6126637;23;20033;-83
2021/12/02 01:57:40;;;;;;;0.73;0.73;;;5.80;99.90;;;;;;6163682;23;20329;-86
2021/12/02 02:00:15;;;;;;;0.77;0.77;;;5.70;99.90;;;;;;6152494;23;20188;-85
2021/12/02 02:02:43;;;;;;;1.20;1.20;;;5.90;99.90;;;;;;6127237;23;20022;-83
2021/12/02 02:05:13;;;;;;;0.77;0.77;;;5.80;99.90;;;;;;6162031;23;20013;-82
2021/12/02 02:08:05;;;;;;;1.00;1.00;;;5.80;99.90;;;;;;6127177;23;20018;-83
2021/12/02 02:10:36;;;;;;;1.10;1.00;;;5.80;99.90;;;;;;6149127;23;20086;-82
2021/12/02 02:13:07;;;;;;;1.00;1.00;;;5.80;99.90;;;;;;6127525;23;20024;-82
2021/12/02 02:15:39;;;;;;;0.80;0.80;;;5.80;99.90;;;;;;6153511;23;20033;-82
2021/12/02 02:18:20;;;;;;;0.98;0.98;;;5.80;99.90;;;;;;6161325;23;20280;-82
2021/12/02 02:21:00;;;;;;;1.30;1.20;;;5.80;99.90;;;;;;6162878;23;20449;-82
2021/12/02 02:23:32;;;;;;;0.95;0.95;;;5.70;99.90;;;;;;6126724;23;20029;-83
2021/12/02 02:26:00;;;;;;;1.08;1.08;;;5.70;99.90;;;;;;6126189;23;20053;-82
2021/12/02 02:28:29;;;;;;;0.95;0.85;;;5.70;99.90;;;;;;6161996;23;20365;-82
2021/12/02 02:30:56;;;;;;;1.77;1.13;;;5.70;99.90;;;;;;6157878;23;20477;-82
2021/12/02 02:33:33;;;;;;;0.95;0.95;;;5.60;99.90;;;;;;6161562;23;20013;-82
2021/12/02 02:36:07;;;;;;;1.00;1.00;;;5.70;99.90;;;;;;6126420;23;20021;-83
2021/12/02 02:38:36;;;;;;;1.20;1.10;;;5.70;99.90;;;;;;6151504;23;20029;-82
2021/12/02 02:41:06;;;;;;;2.85;0.80;;;5.60;99.90;;;;;;6162174;23;20009;-82
2021/12/02 02:43:34;;;;;;;0.80;0.80;;;5.60;99.90;;;;;;6153024;23;20018;-83
2021/12/02 02:46:02;;;;;;;1.13;1.13;;;5.60;99.90;;;;;;6159955;23;20483;-83
2021/12/02 02:48:30;;;;;;;0.80;0.80;;;5.70;99.90;;;;;;6161827;23;20445;-82
2021/12/02 02:51:00;;;;;;;0.85;0.85;;;5.70;99.90;;;;;;6133296;23;20013;-82
2021/12/02 02:53:29;;;;;;;1.83;1.70;;;5.70;99.90;;;;;;6103168;23;20017;-82
2021/12/02 03:06:55;;;;;;;5.13;1.10;;;5.70;99.90;;;;;;6131918;23;20021;-85
2021/12/02 03:17:07;;;;;;;1.70;1.60;;;5.50;99.90;;;;;;6162756;23;20013;-82
2021/12/02 03:19:40;;;;;;;0.90;0.90;;;5.50;99.90;;;;;;6125946;23;20029;-84
2021/12/02 03:22:08;;;;;;;6.32;1.58;;;5.40;99.90;;;;;;6133779;23;20028;-85
2021/12/02 03:24:36;;;;;;;0.80;0.80;;;5.50;99.90;;;;;;6078097;23;20021;-83
2021/12/02 03:27:20;;;;;;;1.38;1.02;;;5.70;99.90;;;;;;6126414;23;20483;-84
2021/12/02 03:30:33;;;;;;;1.92;1.65;;;5.50;99.90;;;;;;6104459;23;20017;-83
2021/12/02 03:33:55;;;;;;;1.00;1.00;;;5.60;99.90;;;;;;6161245;23;20018;-83
2021/12/02 03:37:02;;;;;;;1.08;1.08;;;5.50;99.90;;;;;;6127095;23;20033;-87
2021/12/02 03:39:32;;;;;;;2.80;1.40;;;5.40;99.90;;;;;;6151140;23;20025;-85
2021/12/02 03:42:00;;;;;;;1.58;1.52;;;5.30;99.90;;;;;;6131414;23;20345;-85
2021/12/02 03:44:28;;;;;;;1.40;1.30;;;5.20;99.90;;;;;;6101052;23;20022;-83
2021/12/02 03:46:56;;;;;;;2.25;1.60;;;5.20;99.90;;;;;;6124174;23;20029;-82
2021/12/02 03:49:24;;;;;;;4.45;1.90;;;5.00;99.90;;;;;;6105256;23;20032;-85
2021/12/02 03:51:51;;;;;;;1.05;1.05;;;5.00;99.90;;;;;;6156312;23;20028;-83
2021/12/02 03:54:21;;;;;;;1.40;1.30;;;5.00;99.90;;;;;;6155351;23;20353;-83
2021/12/02 03:56:49;;;;;;;1.13;1.13;;;4.90;99.90;;;;;;6131641;23;20013;-83
2021/12/02 03:59:17;;;;;;;4.13;3.22;;;4.90;99.90;;;;;;6155949;23;20021;-84
2021/12/02 04:01:44;;;;;;;1.67;1.58;;;4.80;99.90;;;;;;6155237;23;20020;-85
2021/12/02 04:04:12;;;;;;;0.80;0.80;;;4.60;99.90;;;;;;6156451;23;20020;-87
2021/12/02 04:06:40;;;;;;;1.38;1.27;;;4.20;99.90;;;;;;6106937;23;20025;-85
2021/12/02 04:09:28;;;;;;;0.85;0.85;;;3.90;99.90;;;;;;6156513;23;20345;-84
2021/12/02 04:12:08;;;;;;;1.05;0.82;;;3.70;99.90;;;;;;6106857;23;20348;-86
2021/12/02 04:14:45;;;;;;;1.65;1.02;;;3.50;99.90;;;;;;6131627;23;20028;-83
2021/12/02 04:17:14;;;;;;;1.05;1.05;;;3.40;99.90;;;;;;6156807;23;20029;-84
2021/12/02 04:19:44;;;;;;;0.93;0.93;;;3.20;99.90;;;;;;6131819;23;20523;-84
2021/12/02 04:22:12;;;;;;;1.05;1.05;;;3.20;99.90;;;;;;6165058;23;20021;-85
2021/12/02 04:24:39;;;;;;;0.80;0.80;;;3.20;99.90;;;;;;6192681;23;20017;-83
2021/12/02 04:27:07;;;;;;;5.70;1.15;;;3.10;99.90;;;;;;6157619;23;20021;-83
2021/12/02 04:29:35;;;;;;;0.80;0.80;;;3.10;99.90;;;;;;6133946;23;20021;-82
2021/12/02 04:32:04;;;;;;;0.88;0.88;;;3.10;99.90;;;;;;6183721;23;20025;-83
2021/12/02 04:34:32;;;;;;;1.15;1.15;;;3.10;99.90;;;;;;6157066;23;20033;-82
2021/12/02 04:36:59;;;;;;;1.30;0.88;;;3.10;99.90;;;;;;6194764;23;20020;-83
2021/12/02 04:39:28;;;;;;;3.55;1.55;;;3.10;99.90;;;;;;6157109;23;20028;-82
2021/12/02 04:41:59;;;;;;;1.85;1.75;;;3.00;99.90;;;;;;6109372;23;20020;-82
2021/12/02 04:44:31;;;;;;;0.98;0.98;;;3.00;99.90;;;;;;6133708;23;20017;-83
2021/12/02 04:46:58;;;;;;;3.40;1.58;;;3.00;99.90;;;;;;6157654;23;20025;-83
2021/12/02 04:49:26;;;;;;;1.17;1.08;;;2.90;99.90;;;;;;6109115;23;20024;-84
2021/12/02 04:51:55;;;;;;;0.93;0.90;;;2.90;99.90;;;;;;6132564;23;20017;-83
2021/12/02 04:54:23;;;;;;;1.10;1.10;;;3.00;99.90;;;;;;6164213;23;20021;-83
2021/12/02 04:56:51;;;;;;;0.88;0.88;;;2.90;99.90;;;;;;6133324;23;20013;-83
2021/12/02 04:59:19;;;;;;;1.42;1.17;;;2.90;99.90;;;;;;6132635;23;20039;-84
2021/12/02 05:01:46;;;;;;;1.48;1.00;;;2.90;99.90;;;;;;6166458;23;20013;-82
2021/12/02 05:04:14;;;;;;;1.00;0.93;;;2.90;99.90;;;;;;6168021;23;20009;-83
2021/12/02 05:06:42;;;;;;;2.65;1.17;;;2.90;99.90;;;;;;6138063;23;20021;-82
2021/12/02 05:09:10;;;;;;;0.82;0.82;;;3.00;99.90;;;;;;6194157;23;20437;-84
2021/12/02 05:11:38;;;;;;;1.13;1.00;;;2.90;99.90;;;;;;6131753;23;20025;-84
2021/12/02 05:14:08;;;;;;;1.00;1.00;;;2.90;99.90;;;;;;6165523;23;20025;-83
2021/12/02 05:16:37;;;;;;;2.53;1.15;;;2.90;99.90;;;;;;6167766;23;20013;-84
2021/12/02 05:19:06;;;;;;;10.85;2.53;;;2.90;99.90;;;;;;6161215;23;20357;-83
2021/12/02 05:21:34;;;;;;;1.73;1.63;;;2.90;99.90;;;;;;6142308;23;20013;-83
2021/12/02 05:24:02;;;;;;;1.20;1.20;;;2.90;99.90;;;;;;6181939;23;20021;-83
2021/12/02 05:26:33;;;;;;;1.65;1.55;;;2.90;99.90;;;;;;6161852;23;20025;-83
2021/12/02 05:29:00;;;;;;;1.05;1.05;;;2.90;99.90;;;;;;6132370;23;20016;-83
2021/12/02 05:31:29;;;;;;;1.35;1.20;;;2.80;99.90;;;;;;6157567;23;20295;-84
2021/12/02 05:33:56;;;;;;;12.45;2.15;;;2.80;99.90;;;;;;6131829;23;20017;-85
2021/12/02 05:36:24;;;;;;;4.10;1.70;;;2.80;99.90;;;;;;6193216;23;20024;-84
2021/12/02 05:38:52;;;;;;;6.20;1.45;;;2.70;99.90;;;;;;6161187;23;20457;-83
2021/12/02 05:41:19;;;;;;;1.10;1.10;;;2.70;99.90;;;;;;6165828;23;20052;-85
2021/12/02 05:43:47;;;;;;;3.70;1.92;;;2.70;99.90;;;;;;6183415;23;20017;-85
2021/12/02 05:46:15;;;;;;;2.08;1.58;;;2.70;99.90;;;;;;6190049;23;20017;-85
2021/12/02 05:48:43;;;;;;;0.98;0.98;;;2.70;99.90;;;;;;6157019;23;20021;-85
2021/12/02 05:51:11;;;;;;;2.67;1.35;;;2.70;99.90;;;;;;6117874;23;20475;-84
2021/12/02 05:53:38;;;;;;;1.13;1.13;;;2.70;99.90;;;;;;6132203;23;20028;-86
2021/12/02 05:56:07;;;;;;;1.10;1.10;;;2.80;99.90;;;;;;6131186;23;20036;-87
2021/12/02 05:58:35;;;;;;;1.80;1.70;;;2.70;99.90;;;;;;6132390;23;20326;-82
2021/12/02 06:01:04;;;;;;;1.58;1.20;;;2.60;99.90;;;;;;6156749;23;20039;-84
2021/12/02 06:03:36;;;;;;;1.05;1.05;;;2.60;99.90;;;;;;6158029;23;20017;-83
2021/12/02 06:06:05;;;;;;;1.70;1.38;;;2.60;99.90;;;;;;6157107;23;20017;-82
2021/12/02 06:08:32;;;;;;;1.30;1.30;;;2.60;99.90;;;;;;6157898;23;20021;-82
2021/12/02 06:11:00;;;;;;;1.60;1.50;;;2.60;99.90;;;;;;6132272;23;20036;-84
2021/12/02 06:13:29;;;;;;;1.65;1.35;;;2.60;99.90;;;;;;6193062;23;20499;-84
2021/12/02 06:15:57;;;;;;;2.80;1.40;;;2.60;99.90;;;;;;6158153;23;20025;-85
2021/12/02 06:18:25;;;;;;;3.03;1.88;;;2.50;99.90;;;;;;6131220;23;20035;-87
2021/12/02 06:20:55;;;;;;;1.90;1.80;;;2.50;99.90;;;;;;6132493;23;20021;-85
2021/12/02 06:23:26;;;;;;;2.38;1.15;;;2.50;99.90;;;;;;6184997;23;20017;-86
2021/12/02 06:25:57;;;;;;;2.03;1.58;;;2.60;99.90;;;;;;6164745;23;20028;-84
2021/12/02 06:28:26;;;;;;;3.33;1.52;;;2.60;99.90;;;;;;6133866;23;20441;-83
2021/12/02 06:30:59;;;;;;;3.30;1.48;;;2.60;99.90;;;;;;6160955;23;20029;-81
2021/12/02 06:33:28;;;;;;;1.13;1.13;;;2.60;99.90;;;;;;6194412;23;20012;-84
2021/12/02 06:35:56;;;;;;;3.35;1.73;;;2.60;99.90;;;;;;6107485;23;20025;-85
2021/12/02 06:38:23;;;;;;;2.10;1.98;;;2.70;99.90;;;;;;6157086;23;20029;-83
2021/12/02 06:40:52;;;;;;;1.45;1.35;;;2.60;99.90;;;;;;6156474;23;20020;-83
2021/12/02 06:43:19;;;;;;;1.45;1.35;;;2.70;99.90;;;;;;6156413;23;20334;-83
2021/12/02 06:45:48;;;;;;;1.88;1.70;;;2.70;99.90;;;;;;6132393;23;20021;-84
2021/12/02 06:48:16;;;;;;;1.80;1.70;;;2.70;99.90;;;;;;6167443;23;20049;-84
2021/12/02 06:50:44;;;;;;;1.55;1.45;;;2.80;99.90;;;;;;6126621;23;20025;-83
2021/12/02 06:53:16;;;;;;;15.50;6.07;;;2.80;99.90;;;;;;6164100;23;20017;-84
2021/12/02 06:55:51;;;;;;;1.77;1.38;;;2.90;99.90;;;;;;6128619;23;20021;-83
2021/12/02 06:58:19;;;;;;;1.45;1.35;;;3.20;99.90;;;;;;6103324;23;20021;-84
2021/12/02 07:00:47;;;;;;;2.15;1.58;;;3.10;99.90;;;;;;6126832;23;20014;-85
2021/12/02 07:03:14;;;;;;;2.17;2.08;;;3.30;99.90;;;;;;6127009;23;20018;-84
2021/12/02 07:05:44;;;;;;;1.55;1.45;;;3.20;99.90;;;;;;6160953;23;20021;-83
2021/12/02 07:08:12;;;;;;;1.10;1.10;;;3.20;99.90;;;;;;6128236;23;20021;-84
2021/12/02 07:10:42;;;;;;;1.40;1.30;;;3.20;99.90;;;;;;6156096;23;20029;-84
2021/12/02 07:13:10;;;;;;;1.00;1.00;;;3.30;99.90;;;;;;6151776;23;20352;-85
2021/12/02 07:15:57;;;;;;;1.02;1.02;;;3.40;99.90;;;;;;6127031;23;20036;-84
2021/12/02 07:18:57;;;;;;;1.50;1.40;;;3.50;99.90;;;;;;6159396;23;20025;-85
2021/12/02 07:21:38;;;;;;;1.63;1.20;;;3.60;99.90;;;;;;6126978;23;20037;-84
2021/12/02 07:24:09;;;;;;;1.75;1.65;;;3.60;99.90;;;;;;6127059;23;20026;-84
2021/12/02 07:26:40;;;;;;;0.88;0.88;;;3.60;99.90;;;;;;6126566;23;20024;-84
2021/12/02 07:29:17;;;;;;;1.35;1.25;;;3.50;99.90;;;;;;6161685;23;20702;-83
2021/12/02 07:31:55;;;;;;;1.48;1.38;;;3.50;99.90;;;;;;6149858;23;20029;-79
2021/12/02 07:34:25;;;;;;;4.20;1.45;;;3.50;99.90;;;;;;6159167;23;20025;-78
2021/12/02 07:36:56;;;;;;;1.00;1.00;;;3.50;99.90;;;;;;6162410;23;20009;-78
2021/12/02 07:39:25;;;;;;;1.00;1.00;;;3.30;99.90;;;;;;6154635;23;20026;-79
2021/12/02 07:41:52;;;;;;;1.33;1.17;;;3.30;99.90;;;;;;6160287;23;20009;-78
2021/12/02 07:44:20;;;;;;;1.00;1.00;;;3.30;99.90;;;;;;6162834;23;20725;-79
2021/12/02 07:46:49;;;;;;;3.10;1.05;;;3.30;99.90;;;;;;6157767;23;20469;-79
2021/12/02 07:49:17;;;;;;;2.90;1.08;;;3.50;99.90;;;;;;6164794;23;20017;-80
2021/12/02 07:51:49;;;;;;;0.85;0.75;;;3.50;99.90;;;;;;6182690;23;20032;-79
2021/12/02 07:54:19;;;;;;;0.80;0.80;;;3.60;99.90;;;;;;6188416;23;20040;-81
2021/12/02 07:56:53;;;;;;;1.23;1.10;;;3.60;99.90;;;;;;6191860;23;20016;-88
2021/12/02 07:59:24;;;;;;;0.90;0.90;;;3.60;99.90;;;;;;6106198;23;20017;-86
2021/12/02 08:02:17;;;;;;;1.58;0.98;;;3.50;99.90;;;;;;6141387;23;20028;-85
2021/12/02 08:04:46;;;;;;;1.33;0.90;;;3.60;99.90;;;;;;6155917;23;20024;-87
2021/12/02 08:07:14;;;;;;;1.13;1.13;;;3.60;99.90;;;;;;6131083;23;20326;-81
2021/12/02 08:09:43;;;;;;;3.25;0.80;;;3.60;99.90;;;;;;6189193;23;20021;-81
2021/12/02 08:12:11;;;;;;;1.65;1.55;;;3.60;99.90;;;;;;6192013;23;20013;-79
2021/12/02 08:14:39;;;;;;;3.88;2.58;;;3.60;99.90;;;;;;6185981;23;20032;-79
2021/12/02 08:17:07;;;;;;;3.97;1.10;;;3.50;99.90;;;;;;6190105;23;20325;-79
2021/12/02 08:19:36;;;;;;;0.90;0.90;;;3.50;99.90;;;;;;6141534;23;20345;-79
2021/12/02 08:22:05;;;;;;;3.70;1.30;;;3.60;99.90;;;;;;6160958;23;20021;-80
2021/12/02 08:24:33;;;;;;;1.20;1.10;;;3.60;99.90;;;;;;6162738;23;20020;-80
2021/12/02 08:27:01;;;;;;;1.67;0.90;;;3.60;99.90;;;;;;6152972;23;20040;-80
2021/12/02 08:29:29;;;;;;;0.80;0.80;;;3.70;99.90;;;;;;6190916;23;20452;-80
2021/12/02 08:31:57;;;;;;;2.80;1.00;;;3.70;99.90;;;;;;6178165;23;20022;-84
2021/12/02 08:34:29;;;;;;;1.17;1.17;;;3.70;99.90;;;;;;6136773;23;20028;-83
2021/12/02 08:36:57;;;;;;;1.02;1.02;;;3.70;99.90;;;;;;6190337;23;20185;-83
2021/12/02 08:39:30;;;;;;;1.23;1.23;;;3.70;99.90;;;;;;6155595;23;20017;-82
2021/12/02 08:41:59;;;;;;;2.03;1.83;;;3.80;99.90;;;;;;6127896;23;20036;-84
2021/12/02 08:44:30;;;;;;;1.15;1.05;;;3.80;99.90;;;;;;6129760;23;20028;-83
2021/12/02 08:46:59;;;;;;;0.80;0.80;;;3.80;99.90;;;;;;6153578;23;20033;-83
2021/12/02 08:49:27;;;;;;;2.50;1.25;;;3.90;99.90;;;;;;6148805;23;20028;-84
2021/12/02 08:51:55;;;;;;;1.20;1.20;;;3.90;99.90;;;;;;6150483;23;20026;-83
2021/12/02 08:54:24;;;;;;;1.27;1.27;;;4.00;99.90;;;;;;6158952;23;20036;-83
2021/12/02 08:56:55;;;;;;;1.30;1.20;;;4.00;99.90;;;;;;6126102;23;20018;-83
2021/12/02 08:59:23;;;;;;;1.10;1.00;;;4.10;99.90;;;;;;6153735;23;20468;-82
2021/12/02 09:01:52;;;;;;;1.23;1.15;;;4.10;99.90;;;;;;6160856;23;20017;-83
2021/12/02 09:04:20;;;;;;;2.15;1.20;;;4.10;99.90;;;;;;6162209;23;20010;-83
2021/12/02 09:06:49;;;;;;;1.17;1.08;;;4.10;99.90;;;;;;6158522;23;20588;-84
2021/12/02 09:09:17;;;;;;;0.95;0.95;;;4.30;99.90;;;;;;6137832;23;20014;-83
2021/12/02 09:11:45;;;;;;;0.90;0.90;;;4.40;99.90;;;;;;6153933;23;20026;-84
2021/12/02 09:14:13;;;;;;;2.35;2.15;;;4.50;99.90;;;;;;6159825;23;20029;-83
2021/12/02 09:16:41;;;;;;;6.18;1.30;;;4.50;99.90;;;;;;6164069;23;20521;-83
2021/12/02 09:19:10;;;;;;;2.15;1.40;;;4.50;99.90;;;;;;6152093;23;20033;-83
2021/12/02 09:21:38;;;;;;;1.25;1.15;;;4.70;99.90;;;;;;6136442;23;20017;-84
2021/12/02 09:24:06;;;;;;;2.65;2.45;;;5.00;99.90;;;;;;6126806;23;20028;-83
2021/12/02 09:26:34;;;;;;;2.03;1.35;;;5.30;99.90;;;;;;6157387;23;20397;-84
2021/12/02 09:29:02;;;;;;;1.98;1.05;;;5.60;99.90;;;;;;6164025;23;20025;-82
2021/12/02 09:31:31;;;;;;;0.80;0.80;;;5.10;99.90;;;;;;6102933;23;20021;-83
2021/12/02 09:33:59;;;;;;;0.93;0.80;;;4.90;99.90;;;;;;6160794;23;20014;-83
2021/12/02 09:36:27;;;;;;;1.15;0.98;;;4.90;99.90;;;;;;6163074;23;20072;-83
2021/12/02 09:38:55;;;;;;;3.55;1.27;;;4.90;99.90;;;;;;6158580;23;20029;-83
2021/12/02 09:41:23;;;;;;;1.55;0.93;;;4.90;99.90;;;;;;6161175;23;20018;-83
2021/12/02 09:43:51;;;;;;;3.83;0.77;;;4.90;99.90;;;;;;6154377;23;20025;-83
2021/12/02 09:46:20;;;;;;;3.80;2.35;;;5.00;99.90;;;;;;6159036;23;20020;-82
2021/12/02 09:48:48;;;;;;;1.80;1.67;;;5.10;99.90;;;;;;6163464;23;20014;-81
2021/12/02 09:51:22;;;;;;;5.15;3.03;;;5.10;99.90;;;;;;6103951;23;20032;-84
2021/12/02 09:54:24;;;;;;;0.90;0.73;;;5.10;99.90;;;;;;6102574;23;20040;-82
2021/12/02 09:56:56;;;;;;;2.85;1.25;;;5.00;99.90;;;;;;6112919;23;20024;-83
2021/12/02 09:59:26;;;;;;;2.95;1.20;;;5.00;99.90;;;;;;6105477;23;20465;-84
2021/12/02 10:02:04;;;;;;;0.80;0.80;;;4.90;99.90;;;;;;6127004;23;20018;-83
2021/12/02 10:04:39;;;;;;;4.03;1.05;;;4.80;99.90;;;;;;6163535;23;20021;-83
2021/12/02 10:07:28;;;;;;;0.75;0.75;;;4.80;99.90;;;;;;6157227;23;20029;-83
2021/12/02 10:12:44;;;;;;;4.32;0.93;;;5.10;99.90;;;;;;6163472;23;20017;-79
2021/12/02 10:15:15;;;;;;;1.10;0.73;;;5.10;99.90;;;;;;6156820;23;20029;-80
2021/12/02 10:20:36;;;;;;;2.80;0.98;;;5.10;99.90;;;;;;6162192;23;20025;-80
2021/12/02 10:23:21;;;;;;;1.55;1.45;;;5.10;99.90;;;;;;6102185;23;20025;-81
2021/12/02 10:25:58;;;;;;;1.08;1.08;;;5.20;99.90;;;;;;6100317;23;20433;-80
2021/12/02 10:28:28;;;;;;;0.85;0.70;;;5.20;99.90;;;;;;6162195;23;20024;-80
2021/12/02 10:31:00;;;;;;;0.90;0.90;;;5.30;99.90;;;;;;6156693;23;20030;-82
2021/12/02 10:33:32;;;;;;;1.00;1.00;;;5.40;99.90;;;;;;6163780;23;20257;-79
2021/12/02 10:36:03;;;;;;;2.10;0.98;;;5.70;99.90;;;;;;6152806;23;20021;-79
2021/12/02 10:38:43;;;;;;;1.40;1.30;;;5.40;99.90;;;;;;6132940;23;20481;-79
2021/12/02 10:41:18;;;;;;;1.10;1.10;;;5.30;99.90;;;;;;6101907;23;20326;-79
2021/12/02 10:44:04;;;;;;;1.83;1.20;;;5.20;99.90;;;;;;6104157;23;20030;-80
2021/12/02 10:46:35;;;;;;;1.23;1.10;;;5.20;99.90;;;;;;6159152;23;20044;-78
2021/12/02 10:49:12;;;;;;;1.83;1.38;;;5.10;99.90;;;;;;6162952;23;20018;-79
2021/12/02 10:51:46;;;;;;;4.38;1.35;;;5.10;99.90;;;;;;6183123;23;20025;-78
2021/12/02 10:54:22;;;;;;;1.38;1.27;;;5.20;99.90;;;;;;6189813;23;20025;-78
2021/12/02 10:56:54;;;;;;;1.67;0.80;;;5.20;99.90;;;;;;6191646;23;20020;-80
2021/12/02 10:59:27;;;;;;;;;;;5.20;99.90;;;;;;6158988;23;20040;-79
2021/12/02 11:01:59;;;;;;;1.00;1.00;;;5.20;99.90;;;;;;6190953;23;19920;-79
2021/12/02 11:04:36;;;;;;;2.30;1.20;;;5.40;99.90;;;;;;6192492;23;20024;-80
2021/12/02 11:07:10;;;;;;;2.85;2.65;;;5.40;99.90;;;;;;6186648;23;20036;-81
2021/12/02 11:09:40;;;;;;;1.23;1.23;;;5.50;99.90;;;;;;6155709;23;20032;-78
2021/12/02 11:12:11;;;;;;;3.95;1.17;;;5.60;99.90;;;;;;6130688;23;20025;-79
2021/12/02 11:14:43;;;;;;;1.00;1.00;;;5.70;99.90;;;;;;6187891;23;20028;-81
2021/12/02 11:17:13;;;;;;;1.50;1.42;;;5.90;99.90;;;;;;6192349;23;20013;-81
2021/12/02 11:19:46;;;;;;;1.77;1.40;;;5.80;99.90;;;;;;6183650;23;20033;-82
2021/12/02 11:22:21;;;;;;;6.20;1.15;;;5.60;99.90;;;;;;6131945;23;20345;-82
2021/12/02 11:24:50;;;;;;;1.58;1.45;;;5.60;99.90;;;;;;6164972;23;20023;-84
2021/12/02 11:27:18;;;;;;;5.78;1.52;;;5.70;99.90;;;;;;6131227;23;20459;-82
2021/12/02 11:30:05;;;;;;;0.80;0.73;;;5.80;99.90;;;;;;6129185;23;20020;-86
2021/12/02 11:32:53;;;;;;;4.55;1.25;;;5.70;99.90;;;;;;6111752;23;20020;-86
2021/12/02 11:35:52;;;;;;;3.10;1.10;;;5.80;99.90;;;;;;6142465;23;20040;-86
2021/12/02 11:38:31;;;;;;;0.80;0.80;;;5.70;99.90;;;;;;6110323;23;20032;-86
2021/12/02 11:41:23;;;;;;;2.38;1.25;;;5.60;99.90;;;;;;6113069;23;20021;-86
2021/12/02 11:43:55;;;;;;;1.35;1.25;;;5.70;99.90;;;;;;6107388;23;20322;-86
2021/12/02 11:46:31;;;;;;;2.83;1.00;;;5.60;99.90;;;;;;6131744;23;20032;-86
2021/12/02 11:49:03;;;;;;;1.95;0.95;;;5.60;99.90;;;;;;6132651;23;20025;-85
2021/12/02 11:51:35;;;;;;;4.43;1.00;;;5.70;99.90;;;;;;6158010;23;20021;-86
2021/12/02 11:54:09;;;;;;;0.70;0.70;;;5.70;99.90;;;;;;6106407;23;20571;-87
2021/12/02 11:56:48;;;;;;;1.75;0.80;;;5.60;99.90;;;;;;6156433;23;20009;-86
2021/12/02 11:59:29;;;;;;;2.70;1.02;;;5.50;99.90;;;;;;6158588;23;20025;-84
2021/12/02 12:02:30;;;;;;;1.23;1.05;;;5.50;99.90;;;;;;6129094;23;20025;-86
2021/12/02 12:05:06;;;;;;;0.98;0.98;;;5.50;99.90;;;;;;6192272;23;20795;-85
2021/12/02 12:08:48;;;;;;;2.38;0.98;;;5.60;99.90;;;;;;6187120;23;20028;-89
2021/12/02 12:11:44;;;;;;;1.30;1.30;;;5.60;99.90;;;;;;6129986;23;20032;-86
2021/12/02 12:14:59;;;;;;;3.63;1.83;;;5.50;99.90;;;;;;6101089;23;20018;-86
2021/12/02 12:17:53;;;;;;;1.30;1.25;;;5.50;99.90;;;;;;6108968;23;20021;-86
2021/12/02 12:21:07;;;;;;;2.33;1.65;;;5.40;99.90;;;;;;6130582;23;20028;-87
2021/12/02 12:25:06;;;;;;;7.03;2.85;;;5.40;99.90;;;;;;6005389;23;20019;-84
2021/12/02 12:27:36;;;;;;;4.88;1.17;;;5.50;99.90;;;;;;6013967;23;20031;-86
2021/12/02 12:30:24;;;;;;;1.77;1.67;;;5.60;99.90;;;;;;6100249;23;20121;-86
2021/12/02 12:33:09;;;;;;;1.10;1.00;;;5.60;99.90;;;;;;6168696;23;20013;-87
2021/12/02 12:35:53;;;;;;;0.98;0.98;;;5.60;99.90;;;;;;6130515;23;20032;-83
2021/12/02 12:38:33;;;;;;;2.47;1.48;;;5.60;99.90;;;;;;6131286;23;20021;-87
2021/12/02 12:45:32;;;;;;;0.95;0.95;;;5.60;99.90;;;;;;6088015;23;20033;-86
2021/12/02 12:48:02;;;;;;;1.95;1.33;;;5.60;99.90;;;;;;6156089;23;20024;-79
2021/12/02 12:50:43;;;;;;;0.90;0.90;;;5.50;99.90;;;;;;6185922;23;20021;-80
2021/12/02 12:53:17;;;;;;;1.35;1.27;;;5.50;99.90;;;;;;6166618;23;20013;-81
2021/12/02 12:55:52;;;;;;;1.25;1.08;;;5.60;99.90;;;;;;6184386;23;20337;-80
2021/12/02 12:58:29;;;;;;;2.78;0.80;;;5.70;99.90;;;;;;6190413;23;20021;-83
2021/12/02 13:01:00;;;;;;;1.48;1.40;;;5.60;99.90;;;;;;6167238;23;20024;-81
2021/12/02 13:03:45;;;;;;;1.20;1.20;;;5.60;99.90;;;;;;6181576;23;20032;-79
2021/12/02 13:06:25;;;;;;;4.57;3.35;;;5.60;99.90;;;;;;6182588;23;20021;-78
2021/12/02 13:09:00;;;;;;;1.00;1.00;;;5.50;99.90;;;;;;6192029;23;20020;-80
2021/12/02 13:11:32;;;;;;;1.45;0.82;;;5.50;99.90;;;;;;6185003;23;20660;-81
2021/12/02 13:14:02;;;;;;;0.80;0.80;;;5.50;99.90;;;;;;6191747;23;20017;-82
2021/12/02 13:16:34;;;;;;;2.08;0.95;;;5.50;99.90;;;;;;6156873;23;20021;-79
2021/12/02 13:19:15;;;;;;;1.67;0.73;;;5.60;99.90;;;;;;6155988;23;20040;-81
2021/12/02 13:21:45;;;;;;;1.23;1.15;;;5.60;99.90;;;;;;6192548;23;20020;-79
2021/12/02 13:24:34;;;;;;;1.88;1.27;;;5.50;99.90;;;;;;6171319;23;20009;-78
2021/12/02 13:27:05;;;;;;;9.15;2.05;;;5.40;99.90;;;;;;6161352;23;20056;-80
2021/12/02 13:29:36;;;;;;;1.10;1.10;;;5.20;99.90;;;;;;6193474;23;20586;-78
2021/12/02 13:32:08;;;;;;;0.90;0.90;;;5.10;99.90;;;;;;6156462;23;20032;-80
2021/12/02 13:34:37;;;;;;;1.48;1.38;;;5.10;99.90;;;;;;6189141;23;20365;-82
2021/12/02 13:37:07;;;;;;;4.13;1.20;;;5.00;99.90;;;;;;6193497;23;20021;-81
2021/12/02 13:39:41;;;;;;;0.75;0.75;;;4.90;99.90;;;;;;6131183;23;20031;-81
2021/12/02 13:42:16;;;;;;;2.63;1.00;;;5.00;99.90;;;;;;6190485;23;20025;-80
2021/12/02 13:44:53;;;;;;;1.95;1.00;;;4.90;99.90;;;;;;6167075;23;20013;-80
2021/12/02 13:47:31;;;;;;;1.08;0.90;;;5.00;99.90;;;;;;6131889;23;20496;-81
2021/12/02 13:50:01;;;;;;;3.45;1.50;;;4.90;99.90;;;;;;6188507;23;20021;-80
2021/12/02 13:52:51;;;;;;;0.98;0.88;;;4.90;99.90;;;;;;6166305;23;20017;-80
2021/12/02 13:55:29;;;;;;;0.93;0.80;;;4.90;99.90;;;;;;6185372;23;20037;-80
2021/12/02 14:00:37;;;;;;;0.80;0.80;;;5.10;99.90;;;;;;6192702;23;20712;-80
2021/12/02 14:03:19;;;;;;;1.23;1.17;;;5.20;99.90;;;;;;6185725;23;20021;-81
2021/12/02 14:05:52;;;;;;;1.17;1.08;;;5.30;99.90;;;;;;6131260;23;20341;-80